Terminal Aerodrome Forecast
Issued by NWS

Home | Current Version | Previous Version | Graphics & Text | Print | Product List | Glossary Off
Versions: 1 2 3 4 5 6 7 8 9 10 11 12 13 14 15

243
FTUS43 KICT 102010 AAA
TAFHUT
TAF AMD
KHUT 102010Z 1020/1118 29014G23KT P6SM SKC
     FM110000 35009KT P6SM SKC
     FM110900 36010KT P6SM SCT010=

USA.gov is the U.S. government's official web portal to all federal, state and local government web resources and services.